createdAt,value
2019-05-19T00:01:55.292Z,28.77
2019-05-19T00:04:24.208Z,28.73
2019-05-19T00:06:53.123Z,28.40
2019-05-19T00:09:22.080Z,28.07
2019-05-19T00:11:51.012Z,29.67
2019-05-19T00:14:19.960Z,29.00
2019-05-19T00:16:48.881Z,29.47
2019-05-19T00:19:26.437Z,27.27
2019-05-19T00:21:48.393Z,25.43
2019-05-19T00:24:17.356Z,24.03
2019-05-19T00:26:46.279Z,24.30
2019-05-19T00:29:15.274Z,23.20
2019-05-19T00:31:44.195Z,21.93
2019-05-19T00:34:13.172Z,21.67
2019-05-19T00:36:42.092Z,21.47
2019-05-19T00:39:11.053Z,20.60
2019-05-19T00:41:39.979Z,20.97
2019-05-19T00:44:08.932Z,18.77
2019-05-19T00:46:37.866Z,20.37
2019-05-19T00:49:06.831Z,21.70
2019-05-19T00:51:35.842Z,22.40
2019-05-19T00:54:05.126Z,22.93
2019-05-19T00:56:34.639Z,23.10
2019-05-19T00:59:04.900Z,24.27
2019-05-19T01:01:33.807Z,24.73
2019-05-19T01:04:02.792Z,24.10
2019-05-19T01:06:31.683Z,24.60
2019-05-19T01:09:00.639Z,23.27
2019-05-19T01:11:29.560Z,23.30
2019-05-19T01:13:58.523Z,23.77
2019-05-19T01:16:27.437Z,23.60
2019-05-19T01:18:56.493Z,24.47
2019-05-19T01:21:25.421Z,25.03
2019-05-19T01:23:54.381Z,25.93
2019-05-19T01:26:23.304Z,25.43
2019-05-19T01:28:52.254Z,24.83
2019-05-19T01:31:21.163Z,25.40
2019-05-19T01:33:50.086Z,25.43
2019-05-19T01:36:19.054Z,25.17
2019-05-19T01:38:47.968Z,23.87
2019-05-19T01:41:17.031Z,24.50
2019-05-19T01:43:45.959Z,25.23
2019-05-19T01:46:14.907Z,22.73
2019-05-19T01:48:43.832Z,21.93
2019-05-19T01:51:12.791Z,21.73
2019-05-19T01:53:41.721Z,21.20
2019-05-19T01:56:10.680Z,22.20
2019-05-19T01:58:39.603Z,22.50
2019-05-19T02:01:08.567Z,22.73
2019-05-19T02:03:37.477Z,24.27
2019-05-19T02:06:06.840Z,27.87
2019-05-19T02:08:35.761Z,24.83
2019-05-19T02:11:05.128Z,25.43
2019-05-19T02:13:34.046Z,25.27
2019-05-19T02:16:03.053Z,28.37
2019-05-19T02:18:32.081Z,26.97
2019-05-19T02:21:02.390Z,26.60
2019-05-19T02:23:31.408Z,25.93
2019-05-19T02:26:00.372Z,27.93
2019-05-19T02:28:29.317Z,27.70
2019-05-19T02:30:58.287Z,25.17
2019-05-19T02:33:27.196Z,25.83
2019-05-19T02:35:56.150Z,26.87
2019-05-19T02:38:25.067Z,23.73
2019-05-19T02:40:56.901Z,20.33
2019-05-19T02:43:27.064Z,19.30
2019-05-19T02:45:59.001Z,19.87
2019-05-19T02:48:29.720Z,19.70
2019-05-19T02:51:01.695Z,20.23
2019-05-19T02:53:32.102Z,22.77
2019-05-19T02:56:02.875Z,18.37
2019-05-19T02:58:33.189Z,19.83
2019-05-19T03:01:02.163Z,16.43
2019-05-19T03:03:31.163Z,16.80
2019-05-19T03:06:00.118Z,16.73
2019-05-19T03:08:29.031Z,17.57
2019-05-19T03:10:57.965Z,16.73
2019-05-19T03:13:26.927Z,18.37
2019-05-19T03:15:55.896Z,16.43
2019-05-19T03:18:25.331Z,17.83
2019-05-19T03:21:09.841Z,20.60
2019-05-19T03:23:24.851Z,16.40
2019-05-19T03:25:53.765Z,18.23
2019-05-19T03:28:22.725Z,16.73
2019-05-19T03:30:53.227Z,16.00
2019-05-19T03:33:23.761Z,18.20
2019-05-19T03:35:52.668Z,18.87
2019-05-19T03:38:22.181Z,19.00
2019-05-19T03:40:51.123Z,18.47
2019-05-19T03:43:20.088Z,18.83
2019-05-19T03:45:49.003Z,18.53
2019-05-19T03:48:18.350Z,16.90
2019-05-19T03:50:47.272Z,16.63
2019-05-19T03:53:16.225Z,16.87
2019-05-19T03:55:45.133Z,16.33
2019-05-19T03:58:14.090Z,17.17
2019-05-19T04:00:43.011Z,15.80
2019-05-19T04:03:11.959Z,15.87
2019-05-19T04:05:40.876Z,16.23
2019-05-19T04:08:09.851Z,14.97
2019-05-19T04:10:38.766Z,16.10
2019-05-19T04:13:07.766Z,15.93
2019-05-19T04:15:36.681Z,17.60
2019-05-19T04:18:05.638Z,15.83
2019-05-19T04:20:34.667Z,16.83
2019-05-19T04:23:03.621Z,14.97
2019-05-19T04:25:32.541Z,15.47
2019-05-19T04:28:01.495Z,14.93
2019-05-19T04:30:30.414Z,14.93
2019-05-19T04:32:59.371Z,15.40
2019-05-19T04:35:28.289Z,13.30
2019-05-19T04:37:57.211Z,14.03
2019-05-19T04:40:26.163Z,14.43
2019-05-19T04:42:55.086Z,15.17
2019-05-19T04:45:24.044Z,15.90
2019-05-19T04:47:52.960Z,15.70
2019-05-19T04:50:21.912Z,17.00
2019-05-19T04:52:50.815Z,16.57
2019-05-19T04:55:19.790Z,17.67
2019-05-19T04:57:48.713Z,15.07
2019-05-19T05:00:17.979Z,17.07
2019-05-19T05:02:46.887Z,14.50
2019-05-19T05:05:16.069Z,14.17
2019-05-19T05:07:44.983Z,13.60
2019-05-19T05:10:14.241Z,13.87
2019-05-19T05:12:43.252Z,12.97
2019-05-19T05:15:12.546Z,12.57
2019-05-19T05:17:41.476Z,12.93
2019-05-19T05:20:10.631Z,12.40
2019-05-19T05:22:39.554Z,12.77
2019-05-19T05:25:08.911Z,13.03
2019-05-19T05:27:37.827Z,12.90
2019-05-19T05:30:07.791Z,13.63
2019-05-19T05:32:36.695Z,12.83
2019-05-19T05:35:07.171Z,12.23
2019-05-19T05:37:36.092Z,12.97
2019-05-19T05:40:07.084Z,13.07
2019-05-19T05:42:36.084Z,14.03
2019-05-19T05:45:07.650Z,12.83
2019-05-19T05:47:36.568Z,13.73
2019-05-19T05:50:08.497Z,13.70
2019-05-19T05:52:38.927Z,13.40
2019-05-19T05:55:08.248Z,12.00
2019-05-19T05:57:37.203Z,13.10
2019-05-19T06:00:08.631Z,12.50
2019-05-19T06:02:37.635Z,13.60
2019-05-19T06:05:07.889Z,15.73
2019-05-19T06:07:36.852Z,13.47
2019-05-19T06:10:07.656Z,11.37
2019-05-19T06:12:36.594Z,12.83
2019-05-19T06:15:06.098Z,12.23
2019-05-19T06:17:35.102Z,13.53
2019-05-19T06:20:05.200Z,15.20
2019-05-19T06:22:34.216Z,13.23
2019-05-19T06:25:03.130Z,12.27
2019-05-19T06:27:32.083Z,12.53
2019-05-19T06:30:01.037Z,12.33
2019-05-19T06:32:31.893Z,12.13
2019-05-19T06:35:00.910Z,11.90
2019-05-19T06:37:29.864Z,13.53
2019-05-19T06:39:58.773Z,12.83
2019-05-19T06:42:27.732Z,11.60
2019-05-19T06:44:56.645Z,11.87
2019-05-19T06:47:25.631Z,11.87
2019-05-19T06:49:54.558Z,13.47
2019-05-19T06:52:23.507Z,12.37
2019-05-19T06:54:52.427Z,12.27
2019-05-19T06:57:21.386Z,12.13
2019-05-19T06:59:50.293Z,11.70
2019-05-19T07:02:19.696Z,12.30
2019-05-19T07:04:48.760Z,12.90
2019-05-19T07:07:17.805Z,11.60
2019-05-19T07:09:58.032Z,11.67
2019-05-19T07:12:17.721Z,10.97
2019-05-19T07:14:46.643Z,11.67
2019-05-19T07:17:16.002Z,12.00
2019-05-19T07:19:44.943Z,12.37
2019-05-19T07:22:13.861Z,13.10
2019-05-19T07:24:42.825Z,12.10
2019-05-19T07:27:12.121Z,13.17
2019-05-19T07:29:41.074Z,11.53
2019-05-19T07:32:09.983Z,12.77
2019-05-19T07:34:38.940Z,13.13
2019-05-19T07:37:07.853Z,14.00
2019-05-19T07:39:36.831Z,13.70
2019-05-19T07:42:05.744Z,13.00
2019-05-19T07:44:34.703Z,12.50
2019-05-19T07:47:03.652Z,10.37
2019-05-19T07:49:32.607Z,12.13
2019-05-19T07:52:01.540Z,12.00
2019-05-19T07:54:30.514Z,12.07
2019-05-19T07:56:59.444Z,12.23
2019-05-19T07:59:28.400Z,12.10
2019-05-19T08:01:57.316Z,11.27
2019-05-19T08:04:26.279Z,9.70
2019-05-19T08:06:55.195Z,9.50
2019-05-19T08:09:24.157Z,10.83
2019-05-19T08:11:53.103Z,10.47
2019-05-19T08:14:22.135Z,11.43
2019-05-19T08:16:51.143Z,10.37
2019-05-19T08:19:20.230Z,10.70
2019-05-19T08:21:49.145Z,11.00
2019-05-19T08:24:18.094Z,10.93
2019-05-19T08:26:47.012Z,10.80
2019-05-19T08:29:15.967Z,11.23
2019-05-19T08:31:44.879Z,11.37
2019-05-19T08:34:13.899Z,12.10
2019-05-19T08:36:42.954Z,11.47
2019-05-19T08:39:11.972Z,10.50
2019-05-19T08:41:40.887Z,11.40
2019-05-19T08:44:10.880Z,11.20
2019-05-19T08:46:40.066Z,11.50
2019-05-19T08:49:09.047Z,12.37
2019-05-19T08:51:37.977Z,11.57
2019-05-19T08:54:15.092Z,12.13
2019-05-19T08:56:38.926Z,11.63
2019-05-19T08:59:08.009Z,11.73
2019-05-19T09:01:36.961Z,11.13
2019-05-19T09:04:05.883Z,11.67
2019-05-19T09:06:34.850Z,11.73
2019-05-19T09:09:05.884Z,11.17
2019-05-19T09:11:34.852Z,12.73
2019-05-19T09:14:03.758Z,11.90
2019-05-19T09:16:32.707Z,11.87
2019-05-19T09:19:01.623Z,12.70
2019-05-19T09:21:30.606Z,12.30
2019-05-19T09:23:59.510Z,12.10
2019-05-19T09:26:28.493Z,13.33
2019-05-19T09:28:57.404Z,13.37
2019-05-19T09:31:26.380Z,13.87
2019-05-19T09:33:55.297Z,13.10
2019-05-19T09:36:24.256Z,13.90
2019-05-19T09:38:53.168Z,12.50
2019-05-19T09:41:22.116Z,13.07
2019-05-19T09:43:51.468Z,12.97
2019-05-19T09:46:20.423Z,11.67
2019-05-19T09:48:50.967Z,12.40
2019-05-19T09:51:19.972Z,12.27
2019-05-19T09:53:48.892Z,11.70
2019-05-19T09:56:17.842Z,12.07
2019-05-19T09:58:46.760Z,13.20
2019-05-19T10:01:15.721Z,12.27
2019-05-19T10:03:44.640Z,12.50
2019-05-19T10:06:14.374Z,11.47
2019-05-19T10:08:43.578Z,12.80
2019-05-19T10:11:21.438Z,12.10
2019-05-19T10:13:50.449Z,12.70
2019-05-19T10:16:19.415Z,12.63
2019-05-19T10:18:48.330Z,12.10
2019-05-19T10:21:17.240Z,12.47
2019-05-19T10:23:46.191Z,13.77
2019-05-19T10:26:15.107Z,12.73
2019-05-19T10:28:44.069Z,12.50
2019-05-19T10:31:13.396Z,13.53
2019-05-19T10:33:42.367Z,13.60
2019-05-19T10:36:11.296Z,12.97
2019-05-19T10:38:40.266Z,12.90
2019-05-19T10:41:09.182Z,12.83
2019-05-19T10:43:39.085Z,12.53
2019-05-19T10:46:07.995Z,12.17
2019-05-19T10:48:36.966Z,12.30
2019-05-19T10:51:05.875Z,12.50
2019-05-19T10:53:34.839Z,12.47
2019-05-19T10:56:03.754Z,12.40
2019-05-19T10:58:32.725Z,13.03
2019-05-19T11:01:01.633Z,12.53
2019-05-19T11:03:30.596Z,13.50
2019-05-19T11:05:59.520Z,15.37
2019-05-19T11:08:28.473Z,14.23
2019-05-19T11:10:57.399Z,15.03
2019-05-19T11:13:26.359Z,18.23
2019-05-19T11:15:55.278Z,17.93
2019-05-19T11:18:24.236Z,15.97
2019-05-19T11:20:53.140Z,16.60
2019-05-19T11:23:22.101Z,15.57
2019-05-19T11:25:51.948Z,13.63
2019-05-19T11:28:21.131Z,16.10
2019-05-19T11:30:50.106Z,14.97
2019-05-19T11:33:19.071Z,17.50
2019-05-19T11:35:47.983Z,20.10
2019-05-19T11:38:16.943Z,16.70
2019-05-19T11:40:45.858Z,15.67
2019-05-19T11:43:14.780Z,15.73
2019-05-19T11:45:43.737Z,16.67
2019-05-19T11:48:12.647Z,18.17
2019-05-19T11:50:42.270Z,16.50
2019-05-19T11:53:11.528Z,15.50
2019-05-19T11:55:40.497Z,17.37
2019-05-19T11:58:09.407Z,18.37
2019-05-19T12:00:38.359Z,16.83
2019-05-19T12:03:07.282Z,16.80
2019-05-19T12:05:36.266Z,15.50
2019-05-19T12:08:05.179Z,15.33
2019-05-19T12:10:34.130Z,16.93
2019-05-19T12:13:03.047Z,17.90
2019-05-19T12:15:32.021Z,15.70
2019-05-19T12:18:00.940Z,15.73
2019-05-19T12:20:29.904Z,16.03
2019-05-19T12:22:58.813Z,16.00
2019-05-19T12:25:27.770Z,16.23
2019-05-19T12:27:56.691Z,15.50
2019-05-19T12:30:25.632Z,16.03
2019-05-19T12:32:54.541Z,16.07
2019-05-19T12:35:23.507Z,14.30
2019-05-19T12:37:52.416Z,15.63
2019-05-19T12:40:22.772Z,14.43
2019-05-19T12:42:51.921Z,14.63
2019-05-19T12:45:22.851Z,14.20
2019-05-19T12:47:52.519Z,14.10
2019-05-19T12:50:21.536Z,14.70
2019-05-19T12:52:50.500Z,13.70
2019-05-19T12:55:21.314Z,13.73
2019-05-19T12:57:51.851Z,14.10
2019-05-19T13:00:21.067Z,13.90
2019-05-19T13:02:50.110Z,13.53
2019-05-19T13:05:19.039Z,13.63
2019-05-19T13:07:47.997Z,13.37
2019-05-19T13:10:22.573Z,12.77
2019-05-19T13:12:52.118Z,12.47
2019-05-19T13:15:21.082Z,13.20
2019-05-19T13:17:50.039Z,13.87
2019-05-19T13:20:19.059Z,12.23
2019-05-19T13:22:48.024Z,12.63
2019-05-19T13:25:16.933Z,13.57
2019-05-19T13:27:45.887Z,14.20
2019-05-19T13:30:14.804Z,12.77
2019-05-19T13:32:43.756Z,12.47
2019-05-19T13:35:13.284Z,13.20
2019-05-19T13:37:42.239Z,12.50
2019-05-19T13:40:11.658Z,12.97
2019-05-19T13:42:40.619Z,12.60
2019-05-19T13:45:11.813Z,12.70
2019-05-19T13:47:40.843Z,12.77
2019-05-19T13:50:09.952Z,12.10
2019-05-19T13:52:39.077Z,12.03
2019-05-19T13:55:09.158Z,13.47
2019-05-19T13:57:38.179Z,12.13
2019-05-19T14:00:09.025Z,12.70
2019-05-19T14:02:41.701Z,12.60
2019-05-19T14:05:10.699Z,12.67
2019-05-19T14:07:39.611Z,13.97
2019-05-19T14:10:08.936Z,14.37
2019-05-19T14:12:37.848Z,13.97
2019-05-19T14:15:07.505Z,13.97
2019-05-19T14:17:36.867Z,13.73
2019-05-19T14:20:08.274Z,13.97
2019-05-19T14:22:37.198Z,14.13
2019-05-19T14:25:07.044Z,13.90
2019-05-19T14:27:35.944Z,12.63
2019-05-19T14:30:07.337Z,13.60
2019-05-19T14:32:36.247Z,12.50
2019-05-19T14:35:08.292Z,12.30
2019-05-19T14:37:37.205Z,12.80
2019-05-19T14:40:09.697Z,13.10
2019-05-19T14:42:42.889Z,12.37
2019-05-19T14:45:12.580Z,12.33
2019-05-19T14:47:41.501Z,12.00
2019-05-19T14:50:10.567Z,13.47
2019-05-19T14:52:39.504Z,12.87
2019-05-19T14:55:08.467Z,12.50
2019-05-19T14:57:45.094Z,12.67
2019-05-19T15:00:09.002Z,12.47
2019-05-19T15:02:38.026Z,11.57
2019-05-19T15:05:07.891Z,11.90
2019-05-19T15:07:36.803Z,12.93
2019-05-19T15:10:06.614Z,12.10
2019-05-19T15:12:35.560Z,12.20
2019-05-19T15:15:06.339Z,12.27
2019-05-19T15:17:35.248Z,12.27
2019-05-19T15:20:07.771Z,12.53
2019-05-19T15:22:36.687Z,12.37
2019-05-19T15:25:05.698Z,11.80
2019-05-19T15:27:34.662Z,12.17
2019-05-19T15:30:13.066Z,12.57
2019-05-19T15:32:36.353Z,13.90
2019-05-19T15:35:06.963Z,12.90
2019-05-19T15:37:35.939Z,13.23
2019-05-19T15:40:09.428Z,13.00
2019-05-19T15:42:38.378Z,12.93
2019-05-19T15:45:09.004Z,13.87
2019-05-19T15:47:37.954Z,13.57
2019-05-19T15:50:08.449Z,13.03
2019-05-19T15:52:37.408Z,12.63
2019-05-19T15:55:06.626Z,13.87
2019-05-19T15:57:35.890Z,14.20
2019-05-19T16:00:07.486Z,14.13
2019-05-19T16:02:36.564Z,15.73
2019-05-19T16:05:07.188Z,14.60
2019-05-19T16:07:36.173Z,15.07
2019-05-19T16:10:07.312Z,14.47
2019-05-19T16:12:36.433Z,14.97
2019-05-19T16:15:08.024Z,15.03
2019-05-19T16:17:36.983Z,15.53
2019-05-19T16:20:09.369Z,14.43
2019-05-19T16:22:38.328Z,14.73
2019-05-19T16:25:07.947Z,14.93
2019-05-19T16:27:36.907Z,14.93
2019-05-19T16:30:08.273Z,14.70
2019-05-19T16:32:37.626Z,15.13
2019-05-19T16:35:08.248Z,14.47
2019-05-19T16:37:37.205Z,14.30
2019-05-19T16:40:06.637Z,13.63
2019-05-19T16:42:35.672Z,13.37
2019-05-19T16:45:08.932Z,14.10
2019-05-19T16:47:37.884Z,14.70
2019-05-19T16:50:07.405Z,14.67
2019-05-19T16:52:36.367Z,13.97
2019-05-19T16:55:17.363Z,14.57
2019-05-19T16:57:46.332Z,14.57
2019-05-19T17:00:15.958Z,14.60
2019-05-19T17:02:44.917Z,14.53
2019-05-19T17:05:14.572Z,15.03
2019-05-19T17:07:43.518Z,14.70
2019-05-19T17:10:14.369Z,14.27
2019-05-19T17:12:43.330Z,14.97
2019-05-19T17:15:12.742Z,13.33
2019-05-19T17:17:42.027Z,13.57
2019-05-19T17:20:11.140Z,12.90
2019-05-19T17:22:40.062Z,13.17
2019-05-19T17:25:09.921Z,12.43
2019-05-19T17:27:38.837Z,11.67
2019-05-19T17:30:09.832Z,11.47
2019-05-19T17:32:38.815Z,11.00
2019-05-19T17:35:08.075Z,11.67
2019-05-19T17:37:36.991Z,11.77
2019-05-19T17:40:07.543Z,12.30
2019-05-19T17:42:37.285Z,12.13
2019-05-19T17:45:08.080Z,11.30
2019-05-19T17:47:36.997Z,11.20
2019-05-19T17:50:07.061Z,11.40
2019-05-19T17:52:35.994Z,11.17
2019-05-19T17:55:06.747Z,11.60
2019-05-19T17:57:38.602Z,11.47
2019-05-19T18:00:11.113Z,12.87
2019-05-19T18:02:40.027Z,12.63
2019-05-19T18:05:09.190Z,12.67
2019-05-19T18:07:38.114Z,12.17
2019-05-19T18:10:07.677Z,13.10
2019-05-19T18:12:36.602Z,12.93
2019-05-19T18:15:07.120Z,12.43
2019-05-19T18:17:36.031Z,12.57
2019-05-19T18:20:06.587Z,13.10
2019-05-19T18:22:35.504Z,13.27
2019-05-19T18:25:06.065Z,13.43
2019-05-19T18:27:35.390Z,13.13
2019-05-19T18:30:04.753Z,13.13
2019-05-19T18:32:33.770Z,13.80
2019-05-19T18:35:02.727Z,13.07
2019-05-19T18:37:35.918Z,14.87
2019-05-19T18:40:17.074Z,14.37
2019-05-19T18:42:50.323Z,13.83
2019-05-19T18:45:20.679Z,13.50
2019-05-19T18:47:50.096Z,14.57
2019-05-19T18:50:19.013Z,14.80
2019-05-19T18:52:47.974Z,14.87
2019-05-19T18:55:16.885Z,14.53
2019-05-19T18:57:45.847Z,15.33
2019-05-19T19:00:17.709Z,14.53
2019-05-19T19:02:48.027Z,16.53
2019-05-19T19:05:17.108Z,16.97
2019-05-19T19:07:50.640Z,16.00
2019-05-19T19:10:19.595Z,15.50
2019-05-19T19:12:48.859Z,16.23
2019-05-19T19:15:17.819Z,16.13
2019-05-19T19:17:46.774Z,16.03
2019-05-19T19:20:16.586Z,15.90
2019-05-19T19:22:45.627Z,15.43
2019-05-19T19:25:14.583Z,15.33
2019-05-19T19:27:43.549Z,16.13
2019-05-19T19:30:13.962Z,16.00
2019-05-19T19:32:42.938Z,15.27
2019-05-19T19:35:11.971Z,16.33
2019-05-19T19:37:40.940Z,15.17
2019-05-19T19:40:09.936Z,15.33
2019-05-19T19:42:39.004Z,15.83
2019-05-19T19:45:07.922Z,15.63
2019-05-19T19:47:36.925Z,15.17
2019-05-19T19:50:07.651Z,15.30
2019-05-19T19:52:36.607Z,15.97
2019-05-19T19:55:06.709Z,15.00
2019-05-19T19:57:35.761Z,15.57
2019-05-19T20:00:17.395Z,15.70
2019-05-19T20:02:36.780Z,15.43
2019-05-19T20:05:06.357Z,15.97
2019-05-19T20:07:35.329Z,15.40
2019-05-19T20:10:06.703Z,16.17
2019-05-19T20:12:35.702Z,14.93
2019-05-19T20:15:05.545Z,15.37
2019-05-19T20:17:34.546Z,19.33
2019-05-19T20:20:03.955Z,16.47
2019-05-19T20:22:32.957Z,17.40
2019-05-19T20:25:01.952Z,15.47
2019-05-19T20:27:30.909Z,15.43
2019-05-19T20:29:59.983Z,15.33
2019-05-19T20:32:28.912Z,14.87
2019-05-19T20:34:57.915Z,15.83
2019-05-19T20:37:26.803Z,14.57
2019-05-19T20:39:55.868Z,15.00
2019-05-19T20:42:24.848Z,14.63
2019-05-19T20:44:58.178Z,15.03
2019-05-19T20:47:32.870Z,15.03
2019-05-19T20:50:05.626Z,13.90
2019-05-19T20:52:36.974Z,14.47
2019-05-19T20:55:08.104Z,14.10
2019-05-19T20:57:39.327Z,14.80
2019-05-19T21:00:11.280Z,13.70
2019-05-19T21:02:43.140Z,15.17
2019-05-19T21:05:13.922Z,15.07
2019-05-19T21:07:48.886Z,16.03
2019-05-19T21:10:19.855Z,15.17
2019-05-19T21:12:49.280Z,15.10
2019-05-19T21:15:18.722Z,16.73
2019-05-19T21:17:49.103Z,16.07
2019-05-19T21:20:20.795Z,15.80
2019-05-19T21:22:51.483Z,16.50
2019-05-19T21:25:22.353Z,17.07
2019-05-19T21:27:51.317Z,17.20
2019-05-19T21:30:20.963Z,16.87
2019-05-19T21:32:52.209Z,16.50
2019-05-19T21:35:21.267Z,17.80
2019-05-19T21:37:50.181Z,18.47
2019-05-19T21:40:19.137Z,19.00
2019-05-19T21:42:48.052Z,19.07
2019-05-19T21:45:17.717Z,19.10
2019-05-19T21:47:46.644Z,18.50
2019-05-19T21:50:15.599Z,18.70
2019-05-19T21:52:44.506Z,18.23
2019-05-19T21:55:14.021Z,19.03
2019-05-19T21:57:42.927Z,18.10
2019-05-19T22:00:12.606Z,19.27
2019-05-19T22:02:41.521Z,18.93
2019-05-19T22:05:11.701Z,20.53
2019-05-19T22:07:48.066Z,20.47
2019-05-19T22:10:17.031Z,21.23
2019-05-19T22:12:45.948Z,19.73
2019-05-19T22:15:14.914Z,20.97
2019-05-19T22:17:43.835Z,20.90
2019-05-19T22:20:12.876Z,19.87
2019-05-19T22:22:41.914Z,21.00
2019-05-19T22:25:11.028Z,21.77
2019-05-19T22:27:39.983Z,24.07
2019-05-19T22:30:09.624Z,22.20
2019-05-19T22:32:38.580Z,22.97
2019-05-19T22:35:09.449Z,21.30
2019-05-19T22:37:38.410Z,22.83
2019-05-19T22:40:08.123Z,22.03
2019-05-19T22:42:37.213Z,21.10
2019-05-19T22:45:09.127Z,20.50
2019-05-19T22:47:38.093Z,20.63
2019-05-19T22:50:08.203Z,22.10
2019-05-19T22:52:37.174Z,20.93
2019-05-19T22:55:07.212Z,19.43
2019-05-19T22:57:36.247Z,21.03
2019-05-19T23:00:07.739Z,19.90
2019-05-19T23:02:36.700Z,21.87
2019-05-19T23:05:07.238Z,21.83
2019-05-19T23:07:36.799Z,21.80
2019-05-19T23:10:07.253Z,21.80
2019-05-19T23:12:36.259Z,22.70
2019-05-19T23:15:09.635Z,23.57
2019-05-19T23:17:38.642Z,21.93
2019-05-19T23:20:07.652Z,18.90
2019-05-19T23:22:36.752Z,16.97
2019-05-19T23:25:06.421Z,15.87
2019-05-19T23:27:35.353Z,13.77
2019-05-19T23:30:06.739Z,11.97
2019-05-19T23:32:35.702Z,10.63
2019-05-19T23:35:07.221Z,11.57
2019-05-19T23:37:36.214Z,13.07
2019-05-19T23:40:09.348Z,14.57
2019-05-19T23:42:38.308Z,16.10
2019-05-19T23:45:07.914Z,16.97
2019-05-19T23:47:36.880Z,17.60
2019-05-19T23:50:09.316Z,14.27
2019-05-19T23:52:38.266Z,15.73
2019-05-19T23:55:08.534Z,14.53
2019-05-19T23:57:37.494Z,13.57
